Latest Coastal Weather Observations for Troughton Island

IDW60701

Issued at 11:22 am WST Tuesday 25 June 2024 (issued every 10 minutes, with the page automatically refreshed every 10 minutes)

About coastal observations | Map of coastal stations | Coastal observations for WA | Marine services | Other Formats
Station Details ID: 001007 Name: TROUGHTON ISLAND Lat: -13.75 Lon: 126.15 Height: 6.0 m
Data from the previous 72 hours. | See also: Recent months at Troughton Island
Date/Time
WST
Wind Sea
Height
m
Swell Vis
km
Cloud Weather Temp
°C
Press
MSL
hPa
Rain since
9am
mm
Dir  Spd
kts
Gust
kts
Height
m
Period
s
Dir
25/11:00am ESE 8 9 - - - - - - - 26.8 1013.6 0.0
25/10:30am SE 8 10 - - - - - - - 26.6 1013.7 0.0
25/10:00am SE 9 10 - - - - - - - 26.3 1013.9 0.0
25/09:30am SE 9 11 - - - - - - - 26.0 1014.1 0.0
25/09:00am SE 8 10 - - - - - - - 26.4 1014.0 0.0
25/08:30am SE 7 9 - - - - - - - 26.6 1014.0 0.0
25/08:00am SSE 7 9 - - - - - - - 25.3 1013.9 0.0
25/07:30am SE 7 8 - - - - - - - 24.8 1013.7 0.0
25/07:00am SE 5 6 - - - - - - - 23.8 1013.3 0.0
25/06:30am SE 7 8 - - - - - - - 21.9 1012.9 0.0
25/06:00am SSE 4 5 - - - - - - - 21.7 1012.5 0.0
25/05:30am SSE 5 6 - - - - - - - 20.9 1012.3 0.0
25/05:00am SSE 5 6 - - - - - - - 20.9 1012.2 0.0
25/04:30am ESE 4 5 - - - - - - - 22.5 1012.1 0.0
25/04:00am SE 5 6 - - - - - - - 21.2 1012.1 0.0
25/03:30am SE 5 7 - - - - - - - 21.2 1012.3 0.0
25/03:00am SE 5 5 - - - - - - - 21.3 1012.4 0.0
25/02:30am SE 4 5 - - - - - - - 21.3 1012.5 0.0
25/02:00am SE 4 5 - - - - - - - 22.0 1012.7 0.0
25/01:30am SE 5 6 - - - - - - - 21.9 1013.0 0.0
25/01:00am ESE 4 6 - - - - - - - 22.2 1013.3 0.0
25/12:30am SE 4 5 - - - - - - - 22.4 1013.5 0.0
25/12:00am ESE 6 7 - - - - - - - 22.5 1013.6 0.0
 
Date/Time
WST
Wind Sea
Height
m
Swell Vis
km
Cloud Weather Temp
°C
Press
MSL
hPa
Rain since
9am
mm
Dir  Spd
kts
Gust
kts
Height
m
Period
s
Dir
24/11:30pm ESE 5 6 - - - - - - - 23.1 1013.7 0.0
24/11:00pm E 6 7 - - - - - - - 23.6 1013.5 0.0
24/10:30pm ENE 7 8 - - - - - - - 24.0 1013.5 0.0
24/10:00pm ENE 7 8 - - - - - - - 23.9 1013.5 0.0
24/09:30pm ENE 7 8 - - - - - - - 23.6 1013.5 0.0
24/09:00pm NE 6 8 - - - - - - - 23.7 1013.7 0.0
24/08:30pm ENE 6 8 - - - - - - - 23.7 1013.5 0.0
24/08:00pm NNE 7 8 - - - - - - - 23.3 1013.2 0.0
24/07:30pm NNE 6 8 - - - - - - - 23.4 1012.9 0.0
24/07:00pm NNE 7 8 - - - - - - - 23.8 1012.6 0.0
24/06:30pm NNE 7 9 - - - - - - - 24.1 1012.4 0.0
24/06:00pm NNE 7 8 - - - - - - - 24.6 1012.1 0.0
24/05:30pm NNE 6 8 - - - - - - - 24.5 1011.8 0.0
24/05:00pm NNE 7 8 - - - - - - - 25.4 1011.6 0.0
24/04:30pm NNE 6 7 - - - - - - - 26.0 1011.5 0.0
24/04:00pm NNE 6 7 - - - - - - - 27.0 1011.3 0.0
24/03:30pm NE 6 7 - - - - - - - 27.0 1011.3 0.0
24/03:00pm ENE 7 8 - - - - - - - 27.9 1011.4 0.0
24/02:30pm E 8 10 - - - - - - - 28.1 1011.5 0.0
24/02:00pm ESE 9 11 - - - - - - - 27.9 1011.7 0.0
24/01:30pm ESE 11 13 - - - - - - - 27.9 1011.8 0.0
24/01:00pm ESE 12 15 - - - - - - - 27.9 1012.2 0.0
24/12:30pm ESE 12 15 - - - - - - - 27.8 1012.6 0.0
24/12:00pm ESE 13 16 - - - - - - - 27.3 1013.1 0.0
24/11:30am ESE 15 19 - - - - - - - 27.2 1013.5 0.0
24/11:00am ESE 15 17 - - - - - - - 27.1 1014.1 0.0
24/10:30am ESE 17 21 - - - - - - - 26.2 1014.6 0.0
24/10:00am ESE 17 20 - - - - - - - 26.1 1015.1 0.0
24/09:30am ESE 16 20 - - - - - - - 25.6 1015.4 0.0
24/09:00am SE 16 20 - - - - - - - 25.3 1015.9 0.0
24/08:30am ESE 20 24 - - - - - - - 24.7 1015.9 0.0
24/08:00am ESE 19 23 - - - - - - - 24.4 1015.5 0.0
24/07:30am ESE 20 23 - - - - - - - 24.2 1015.3 0.0
24/07:00am ESE 19 24 - - - - - - - 23.8 1014.8 0.0
24/06:30am ESE 20 24 - - - - - - - 23.5 1014.2 0.0
24/06:00am ESE 18 22 - - - - - - - 23.2 1014.0 0.0
24/05:30am SE 18 22 - - - - - - - 23.2 1013.9 0.0
24/05:00am ESE 19 23 - - - - - - - 23.7 1013.6 0.0
24/04:30am ESE 19 23 - - - - - - - 24.1 1013.3 0.0
24/04:00am ESE 19 24 - - - - - - - 24.2 1013.2 0.0
24/03:30am SE 15 17 - - - - - - - 23.6 1013.3 0.0
24/03:00am SE 13 16 - - - - - - - 23.4 1013.2 0.0
24/02:30am SE 12 15 - - - - - - - 23.5 1013.4 0.0
24/02:00am SE 13 15 - - - - - - - 24.0 1013.7 0.0
24/01:30am SSE 11 13 - - - - - - - 23.5 1013.7 0.0
24/01:00am SSE 12 15 - - - - - - - 23.4 1013.8 0.0
24/12:30am SE 13 16 - - - - - - - 24.4 1014.2 0.0
24/12:00am SE 11 14 - - - - - - - 24.2 1014.3 0.0
 
Date/Time
WST
Wind Sea
Height
m
Swell Vis
km
Cloud Weather Temp
°C
Press
MSL
hPa
Rain since
9am
mm
Dir  Spd
kts
Gust
kts
Height
m
Period
s
Dir
23/11:30pm ESE 12 13 - - - - - - - 24.6 1014.3 0.0
23/11:00pm ESE 11 13 - - - - - - - 24.8 1014.3 0.0
23/10:30pm ESE 12 14 - - - - - - - 24.7 1014.3 0.0
23/10:00pm E 11 13 - - - - - - - 24.7 1014.4 0.0
23/09:30pm E 11 13 - - - - - - - 24.9 1014.4 0.0
23/09:00pm E 11 13 - - - - - - - 25.1 1014.4 0.0
23/08:30pm ENE 10 12 - - - - - - - 25.1 1014.4 0.0
23/08:00pm ENE 11 13 - - - - - - - 25.0 1014.2 0.0
23/07:30pm ENE 12 14 - - - - - - - 25.1 1014.1 0.0
23/07:00pm NE 11 13 - - - - - - - 25.0 1013.8 0.0
23/06:30pm NE 10 12 - - - - - - - 24.9 1013.6 0.0
23/06:00pm NE 10 13 - - - - - - - 24.9 1013.3 0.0
23/05:30pm NE 9 12 - - - - - - - 25.2 1013.1 0.0
23/05:00pm ENE 8 10 - - - - - - - 25.6 1012.9 0.0
23/04:30pm ENE 8 9 - - - - - - - 26.2 1012.9 0.0
23/04:00pm NE 8 9 - - - - - - - 26.7 1012.9 0.0
23/03:30pm NE 7 10 - - - - - - - 27.1 1012.9 0.0
23/03:00pm ENE 8 9 - - - - - - - 27.3 1012.9 0.0
23/02:30pm E 8 11 - - - - - - - 27.8 1013.1 0.0
23/02:00pm E 9 11 - - - - - - - 28.3 1013.1 0.0
23/01:30pm ESE 10 12 - - - - - - - 28.0 1013.5 0.0
23/01:00pm ESE 10 12 - - - - - - - 28.1 1013.9 0.0
23/12:30pm E 13 17 - - - - - - - 28.5 1014.4 0.0
23/12:00pm E 12 15 - - - - - - - 27.7 1014.8 0.0
23/11:30am ESE 13 16 - - - - - - - 26.7 1015.0 0.0
23/11:00am ESE 14 17 - - - - - - - 26.2 1015.6 0.0
23/10:30am ESE 16 21 - - - - - - - 26.6 1016.1 0.0
23/10:00am ESE 19 23 - - - - - - - 25.8 1016.4 0.0
23/09:30am ESE 19 23 - - - - - - - 25.5 1016.8 0.0
23/09:00am ESE 20 23 - - - - - - - 25.2 1017.0 0.0
23/08:30am ESE 20 24 - - - - - - - 24.8 1017.1 0.0
23/08:00am ESE 21 25 - - - - - - - 24.7 1017.0 0.0
23/07:30am ESE 22 26 - - - - - - - 24.4 1016.6 0.0
23/07:00am ESE 23 28 - - - - - - - 24.0 1016.3 0.0
23/06:30am ESE 22 26 - - - - - - - 23.8 1016.0 0.0
23/06:00am ESE 22 28 - - - - - - - 23.7 1015.7 0.0
23/05:30am ESE 22 26 - - - - - - - 23.8 1015.4 0.0
23/05:00am ESE 20 27 - - - - - - - 23.9 1015.2 0.0
23/04:30am ESE 20 26 - - - - - - - 24.2 1015.0 0.0
23/04:00am ESE 20 24 - - - - - - - 24.4 1014.9 0.0
23/03:30am ESE 19 23 - - - - - - - 24.6 1014.8 0.0
23/03:00am ESE 17 21 - - - - - - - 24.4 1014.9 0.0
23/02:30am SE 15 19 - - - - - - - 24.2 1014.9 0.0
23/02:00am ESE 15 19 - - - - - - - 24.3 1015.1 0.0
23/01:30am SE 15 17 - - - - - - - 24.4 1015.3 0.0
23/01:00am SE 15 19 - - - - - - - 24.6 1015.6 0.0
23/12:30am ESE 16 19 - - - - - - - 24.8 1015.7 0.0
23/12:00am ESE 17 20 - - - - - - - 25.0 1015.9 0.0
 
Date/Time
WST
Wind Sea
Height
m
Swell Vis
km
Cloud Weather Temp
°C
Press
MSL
hPa
Rain since
9am
mm
Dir  Spd
kts
Gust
kts
Height
m
Period
s
Dir
22/11:30pm ESE 16 18 - - - - - - - 25.0 1015.9 0.0
22/11:00pm SE 15 19 - - - - - - - 25.2 1016.0 0.0
22/10:30pm ESE 14 17 - - - - - - - 25.3 1015.8 0.0
22/10:00pm ESE 13 16 - - - - - - - 25.4 1015.7 0.0
22/09:30pm ESE 12 13 - - - - - - - 25.2 1015.8 0.0
22/09:00pm ESE 13 16 - - - - - - - 25.5 1015.6 0.0
22/08:30pm E 13 16 - - - - - - - 25.7 1015.6 0.0
22/08:00pm E 13 15 - - - - - - - 25.8 1015.4 0.0
22/07:30pm E 13 16 - - - - - - - 25.8 1015.1 0.0
22/07:00pm ENE 13 16 - - - - - - - 25.5 1014.7 0.0
22/06:30pm ENE 14 17 - - - - - - - 25.3 1014.3 0.0
22/06:00pm ENE 15 18 - - - - - - - 25.4 1014.1 0.0
22/05:30pm ENE 16 19 - - - - - - - 25.4 1014.0 0.0
22/05:00pm ENE 15 17 - - - - - - - 25.6 1013.7 0.0
22/04:30pm ENE 15 19 - - - - - - - 26.0 1013.6 0.0
22/04:00pm ENE 15 17 - - - - - - - 26.5 1013.4 0.0
22/03:30pm ENE 15 18 - - - - - - - 26.7 1013.4 0.0
22/03:00pm ENE 14 18 - - - - - - - 26.9 1013.5 0.0
22/02:30pm ENE 16 19 - - - - - - - 27.4 1013.6 0.0
22/02:00pm ENE 15 18 - - - - - - - 27.8 1013.8 0.0
22/01:30pm ENE 15 18 - - - - - - - 27.8 1014.0 0.0
22/01:00pm E 12 15 - - - - - - - 28.8 1014.4 0.0
22/12:30pm E 14 18 - - - - - - - 28.6 1014.9 0.0
22/12:00pm E 15 18 - - - - - - - 28.7 1015.5 0.0
22/11:30am E 16 19 - - - - - - - 28.3 1015.9 0.0

Other formats

Comma delimited format used in spreadsheet applications
http://www.bom.gov.au/fwo/IDW60701/IDW60701.94102.axf

JavaScript Object Notation format (JSON) in row-major order
http://www.bom.gov.au/fwo/IDW60701/IDW60701.94102.json

Data quality

Most of these data are generated automatically and are frequently updated. Quality checks on data are not normally performed. It is possible for incorrect values to appear. Refer to information at About Latest Weather Observations and please check the disclaimer before using these data.